Time;durP1;ratioP1;P1;durP2;ratioP2;P2;SDS_P1;SDS_P2;PMS_P1;PMS_P2;Temp;Humidity;BMP_temperature;BMP_pressure;BME280_temperature;BME280_humidity;BME280_pressure;Samples;Min_cycle;Max_cycle;Signal;HPM_P1;HPM_P2
2024/02/06 00:00:17;;;;;;;33.63;9.87;;;11.40;99.90;;;11.61;100.00;101291.28;4974085;28;20122;-70
2024/02/06 00:02:45;;;;;;;41.70;9.93;;;11.40;99.90;;;11.65;100.00;101298.34;4973982;28;20038;-69
2024/02/06 00:05:13;;;;;;;39.42;10.20;;;11.40;99.90;;;11.64;100.00;101297.44;4974073;28;20158;-69
2024/02/06 00:07:42;;;;;;;37.88;9.45;;;11.40;99.90;;;11.61;100.00;101286.84;4974176;28;20043;-69
2024/02/06 00:10:11;;;;;;;39.45;9.73;;;11.40;99.90;;;11.58;100.00;101283.31;4973970;28;20035;-69
2024/02/06 00:12:40;;;;;;;35.92;8.88;;;11.50;99.90;;;11.61;100.00;101297.44;4973827;28;20126;-69
2024/02/06 00:15:10;;;;;;;38.03;9.25;;;11.40;99.90;;;11.57;100.00;101290.41;4974632;28;20054;-69
2024/02/06 00:17:39;;;;;;;37.55;9.43;;;11.40;99.90;;;11.56;100.00;101285.97;4974845;28;20050;-69
2024/02/06 00:20:09;;;;;;;36.63;9.15;;;11.40;99.90;;;11.52;100.00;101251.53;4975497;28;20238;-69
2024/02/06 00:22:38;;;;;;;34.65;10.32;;;11.30;99.90;;;11.53;100.00;101280.69;4990250;28;20057;-69
2024/02/06 00:25:08;;;;;;;35.83;10.20;;;11.30;99.90;;;11.54;100.00;101274.50;4975489;28;20062;-69
2024/02/06 00:27:36;;;;;;;44.55;10.55;;;11.30;99.90;;;11.40;100.00;101244.50;4975437;28;20078;-69
2024/02/06 00:30:07;;;;;;;43.58;10.65;;;11.30;99.90;;;11.48;100.00;101279.81;4989583;28;20546;-69
2024/02/06 00:32:37;;;;;;;39.22;10.73;;;11.30;99.90;;;11.55;100.00;101268.31;4990558;28;20109;-70
2024/02/06 00:35:07;;;;;;;39.40;10.20;;;11.30;99.90;;;11.60;100.00;101269.19;4975571;28;20093;-69
2024/02/06 00:37:35;;;;;;;41.85;10.73;;;11.40;99.90;;;11.53;100.00;101267.44;4975197;28;20053;-70
2024/02/06 00:40:05;;;;;;;40.92;10.02;;;11.40;99.90;;;11.43;100.00;101255.09;4975398;28;20109;-69
2024/02/06 00:42:33;;;;;;;45.27;9.77;;;11.30;99.90;;;11.55;100.00;101264.78;4975487;28;20038;-70
2024/02/06 00:45:02;;;;;;;33.95;10.85;;;11.30;99.90;;;11.58;100.00;101270.97;4975335;28;20644;-69
2024/02/06 00:47:32;;;;;;;37.15;8.75;;;11.30;99.90;;;11.50;100.00;101264.78;4975224;28;20051;-69
2024/02/06 00:50:01;;;;;;;37.50;9.57;;;11.30;99.90;;;11.58;100.00;101281.56;4974954;28;20407;-69
2024/02/06 00:52:30;;;;;;;38.72;9.75;;;11.40;99.90;;;11.56;100.00;101240.94;4974941;28;20035;-69
2024/02/06 00:54:59;;;;;;;42.78;9.85;;;11.40;99.90;;;11.52;100.00;101255.06;4975254;28;20043;-69
2024/02/06 00:57:28;;;;;;;34.70;10.02;;;11.30;99.90;;;11.51;100.00;101260.38;4974834;28;20058;-69
2024/02/06 00:59:56;;;;;;;40.80;9.93;;;11.30;99.90;;;11.56;100.00;101256.81;4975385;28;20066;-69
2024/02/06 01:02:25;;;;;;;37.05;9.45;;;11.30;99.90;;;11.60;100.00;101261.25;4974862;28;20143;-69
2024/02/06 01:04:55;;;;;;;45.20;9.98;;;11.40;99.90;;;11.59;100.00;101245.34;4974801;28;20472;-69
2024/02/06 01:07:25;;;;;;;43.05;10.60;;;11.40;99.90;;;11.56;100.00;101246.22;4975147;28;20070;-69
2024/02/06 01:09:54;;;;;;;38.47;10.48;;;11.40;99.90;;;11.56;100.00;101234.75;4975115;28;20049;-69
2024/02/06 01:12:22;;;;;;;34.70;10.48;;;11.40;99.90;;;11.47;100.00;101232.13;4974624;28;20042;-69
2024/02/06 01:14:51;;;;;;;39.25;9.55;;;11.30;99.90;;;11.56;100.00;101214.44;4975112;28;20042;-69
2024/02/06 01:17:19;;;;;;;45.13;11.02;;;11.40;99.90;;;11.52;100.00;101228.56;4974511;28;20070;-69
2024/02/06 01:19:48;;;;;;;44.78;9.90;;;11.30;99.90;;;11.55;100.00;101217.09;4974450;28;20046;-69
2024/02/06 01:22:16;;;;;;;42.33;10.02;;;11.30;99.90;;;11.49;100.00;101206.53;4974698;28;20564;-69
2024/02/06 01:24:46;;;;;;;34.65;9.40;;;11.30;99.90;;;11.50;100.00;101214.44;4974407;28;20047;-69
2024/02/06 01:27:14;;;;;;;36.50;9.57;;;11.30;99.90;;;11.53;100.00;101203.88;4974464;28;20460;-69
2024/02/06 01:29:43;;;;;;;33.05;9.88;;;11.40;99.90;;;11.56;100.00;101218.84;4974187;28;20047;-69
2024/02/06 01:32:11;;;;;;;36.10;9.07;;;11.30;99.90;;;11.55;100.00;101202.09;4974494;28;20416;-69
2024/02/06 01:34:41;;;;;;;41.90;9.98;;;11.40;99.90;;;11.52;100.00;101210.03;4974198;28;20051;-69
2024/02/06 01:37:10;;;;;;;39.08;9.60;;;11.30;99.90;;;11.52;100.00;101182.66;4974571;28;20046;-69
2024/02/06 01:39:38;;;;;;;37.17;9.68;;;11.40;99.90;;;11.56;100.00;101208.25;4972998;28;20051;-69
2024/02/06 01:42:08;;;;;;;39.42;9.95;;;11.40;99.90;;;11.56;100.00;101202.94;4974040;28;20074;-69
2024/02/06 01:44:37;;;;;;;43.17;10.30;;;11.40;99.90;;;11.63;100.00;101208.22;4974375;28;20047;-69
2024/02/06 01:47:11;;;;;;;41.10;9.73;;;11.40;99.90;;;11.59;100.00;101182.63;4973552;28;20054;-69
2024/02/06 01:49:39;;;;;;;37.88;9.70;;;11.40;99.90;;;11.55;100.00;101185.31;4977354;28;20061;-69
2024/02/06 01:52:09;;;;;;;41.53;11.20;;;11.40;99.90;;;11.57;100.00;101173.84;4973474;28;20096;-69
2024/02/06 01:54:38;;;;;;;44.42;11.07;;;11.40;99.90;;;11.60;100.00;101184.41;4974018;28;20137;-69
2024/02/06 01:57:07;;;;;;;42.90;10.65;;;11.40;99.90;;;11.63;100.00;101183.53;4972955;28;20043;-69
2024/02/06 01:59:36;;;;;;;49.22;10.77;;;11.40;99.90;;;11.62;100.00;101182.63;4989051;28;20520;-69
2024/02/06 02:02:05;;;;;;;50.13;10.75;;;11.40;99.90;;;11.62;100.00;101177.34;4973885;28;20039;-69
2024/02/06 02:04:34;;;;;;;40.40;9.80;;;11.40;99.90;;;11.59;100.00;101168.53;4974099;28;20153;-69
2024/02/06 02:07:03;;;;;;;47.55;9.95;;;11.40;99.90;;;11.63;100.00;101171.13;4973719;28;20078;-69
2024/02/06 02:09:32;;;;;;;44.03;9.68;;;11.40;99.90;;;11.58;100.00;101159.69;4988898;28;20392;-69
2024/02/06 02:12:00;;;;;;;37.47;9.77;;;11.40;99.90;;;11.51;100.00;101139.41;4974062;28;20551;-69
2024/02/06 02:14:30;;;;;;;42.78;9.95;;;11.30;99.90;;;11.54;100.00;101151.75;4973795;28;20059;-69
2024/02/06 02:16:58;;;;;;;43.50;10.13;;;11.30;99.90;;;11.64;100.00;101157.00;4988959;28;20054;-69
2024/02/06 02:19:27;;;;;;;40.75;10.10;;;11.40;99.90;;;11.62;100.00;101179.97;4973978;28;20043;-69
2024/02/06 02:21:56;;;;;;;43.53;10.27;;;11.40;99.90;;;11.61;100.00;101135.81;4973976;28;20047;-69
2024/02/06 02:24:25;;;;;;;58.87;10.93;;;11.40;99.90;;;11.54;100.00;101157.94;4973966;28;20053;-69
2024/02/06 02:26:54;;;;;;;36.10;9.57;;;11.40;99.90;;;11.58;100.00;101112.00;4988834;28;20780;-69
2024/02/06 02:29:24;;;;;;;40.28;9.88;;;11.40;99.90;;;11.55;100.00;101154.41;4973596;28;20039;-69
2024/02/06 02:31:53;;;;;;;44.40;10.50;;;11.30;99.90;;;11.53;100.00;101145.59;4973802;28;20043;-69
2024/02/06 02:34:22;;;;;;;46.65;10.57;;;11.30;99.90;;;11.46;100.00;101130.59;4973840;28;20364;-69
2024/02/06 02:36:50;;;;;;;48.03;9.77;;;11.30;99.90;;;11.52;100.00;101133.22;4973797;28;20039;-69
2024/02/06 02:39:20;;;;;;;39.47;11.35;;;11.30;99.90;;;11.52;100.00;101132.31;4973548;28;20121;-69
2024/02/06 02:41:49;;;;;;;47.93;9.73;;;11.30;99.90;;;11.56;100.00;101119.06;4973924;28;20058;-69
2024/02/06 02:44:17;;;;;;;53.63;11.45;;;11.30;99.90;;;11.58;100.00;101130.53;4973521;28;20294;-69
2024/02/06 02:46:45;;;;;;;42.08;10.43;;;11.40;99.90;;;11.63;100.00;101141.13;4988380;28;20058;-69
2024/02/06 02:49:14;;;;;;;50.22;10.50;;;11.40;99.90;;;11.40;100.00;101087.38;4973536;28;20075;-69
2024/02/06 02:51:42;;;;;;;45.30;10.57;;;11.40;99.90;;;11.54;100.00;101123.50;4973390;28;20126;-69
2024/02/06 02:54:11;;;;;;;54.63;10.35;;;11.40;99.90;;;11.64;100.00;101126.97;4975186;28;20566;-69
2024/02/06 02:56:41;;;;;;;38.25;10.15;;;11.40;99.90;;;11.56;100.00;101128.78;4977586;28;20093;-69
2024/02/06 02:59:09;;;;;;;58.07;12.50;;;11.30;99.90;;;11.61;100.00;101127.88;4977642;28;20071;-69
2024/02/06 03:01:38;;;;;;;44.17;11.48;;;11.40;99.90;;;11.67;100.00;101121.72;4977193;28;20047;-69
2024/02/06 03:04:06;;;;;;;48.80;10.73;;;11.40;99.90;;;11.72;100.00;101118.16;4976952;28;20121;-69
2024/02/06 03:06:36;;;;;;;53.03;12.70;;;11.50;99.90;;;11.65;100.00;101118.16;4977214;28;20051;-69
2024/02/06 03:09:04;;;;;;;45.88;11.30;;;11.40;99.90;;;11.69;100.00;101112.84;4977131;28;20045;-69
2024/02/06 03:11:33;;;;;;;53.42;10.85;;;11.50;99.90;;;11.67;100.00;101109.31;4991974;28;20050;-69
2024/02/06 03:14:02;;;;;;;55.85;10.82;;;11.50;99.90;;;11.59;100.00;101091.69;4976790;28;20043;-69
2024/02/06 03:16:31;;;;;;;52.50;11.87;;;11.40;99.90;;;11.71;100.00;101095.16;4977055;28;20400;-69
2024/02/06 03:18:59;;;;;;;49.03;11.02;;;11.50;99.90;;;11.74;100.00;101091.63;4976717;28;20047;-69
2024/02/06 03:21:28;;;;;;;52.45;11.38;;;11.50;99.90;;;11.62;100.00;101095.19;4976626;28;20046;-69
2024/02/06 03:23:56;;;;;;;49.97;10.95;;;11.40;99.90;;;11.64;100.00;101089.88;4991866;28;20070;-69
2024/02/06 03:26:25;;;;;;;60.58;11.43;;;11.40;99.90;;;11.64;100.00;101084.59;4991535;28;20090;-69
2024/02/06 03:28:53;;;;;;;50.40;10.65;;;11.40;99.90;;;11.58;100.00;101072.25;4976772;28;20050;-69
2024/02/06 03:31:23;;;;;;;44.97;11.13;;;11.40;99.90;;;11.61;100.00;101093.41;4975394;28;20102;-69
2024/02/06 03:33:52;;;;;;;46.22;11.60;;;11.40;99.90;;;11.59;100.00;101076.66;4976434;28;20046;-69
2024/02/06 03:36:20;;;;;;;48.50;11.27;;;11.40;99.90;;;11.59;100.00;101076.66;4976629;28;20057;-69
2024/02/06 03:38:49;;;;;;;47.15;10.63;;;11.40;99.90;;;11.57;100.00;101070.50;4976682;28;20055;-69
2024/02/06 03:41:17;;;;;;;51.25;10.02;;;11.40;99.90;;;11.51;100.00;101072.28;4976526;28;20058;-69
2024/02/06 03:43:45;;;;;;;50.08;10.75;;;11.40;99.90;;;11.55;100.00;101064.34;4976280;28;20043;-69
2024/02/06 03:46:14;;;;;;;52.40;12.18;;;11.30;99.90;;;11.59;100.00;101062.53;4975953;28;20038;-69
2024/02/06 03:48:44;;;;;;;50.83;11.27;;;11.40;99.90;;;11.48;100.00;101033.44;4975740;28;20058;-69
2024/02/06 03:51:12;;;;;;;56.40;12.30;;;11.30;99.90;;;11.57;100.00;101054.63;4976427;28;20043;-69
2024/02/06 03:53:41;;;;;;;45.70;10.57;;;11.40;99.90;;;11.52;100.00;101063.44;4991241;28;20357;-69
2024/02/06 03:56:09;;;;;;;54.05;12.10;;;11.30;99.90;;;11.59;100.00;101051.94;4976081;28;20174;-69
2024/02/06 03:58:39;;;;;;;47.45;11.70;;;11.30;99.90;;;10.88;100.00;100933.16;4974856;28;20142;-69
2024/02/06 04:01:07;;;;;;;50.45;11.73;;;11.30;99.90;;;10.95;100.00;100926.06;4991149;28;20057;-69
2024/02/06 04:03:35;;;;;;;43.00;11.18;;;11.40;99.90;;;11.63;100.00;101037.81;4975567;28;20058;-69
2024/02/06 04:06:06;;;;;;;49.92;10.75;;;11.40;99.90;;;11.63;100.00;101043.09;4975815;28;20500;-69
2024/02/06 04:08:34;;;;;;;56.13;11.52;;;11.40;99.90;;;11.63;100.00;101038.66;4975058;28;20059;-69
2024/02/06 04:11:04;;;;;;;56.08;12.25;;;11.40;99.90;;;11.62;100.00;101039.56;4975652;28;20053;-69
2024/02/06 04:13:33;;;;;;;58.38;10.82;;;11.40;99.90;;;11.68;100.00;101047.50;4976158;28;20054;-69
2024/02/06 04:16:01;;;;;;;55.40;11.90;;;11.50;99.90;;;11.68;100.00;101028.97;4975749;28;20051;-69
2024/02/06 04:18:29;;;;;;;48.20;10.70;;;11.40;99.90;;;11.68;100.00;101036.91;4974595;28;20460;-69
2024/02/06 04:20:58;;;;;;;53.22;11.75;;;11.40;99.90;;;11.67;100.00;101026.34;4990994;28;20046;-69
2024/02/06 04:23:28;;;;;;;63.60;13.75;;;11.40;99.90;;;11.69;100.00;101040.44;4974478;28;20051;-69
2024/02/06 04:25:56;;;;;;;60.07;11.87;;;11.40;99.90;;;11.69;100.00;101019.25;4975547;28;20038;-69
2024/02/06 04:28:25;;;;;;;55.63;12.38;;;11.50;99.90;;;11.66;100.00;101030.75;4975961;28;20113;-69
2024/02/06 04:30:53;;;;;;;57.63;11.68;;;11.50;99.90;;;11.69;100.00;101029.84;4975627;28;20041;-69
2024/02/06 04:33:22;;;;;;;59.88;12.80;;;11.50;99.90;;;11.64;100.00;101010.41;4990346;28;20451;-69
2024/02/06 04:35:50;;;;;;;56.38;11.20;;;11.40;99.90;;;11.64;100.00;101021.88;4989797;28;20059;-69
2024/02/06 04:38:19;;;;;;;54.25;12.45;;;11.40;99.90;;;11.72;100.00;101001.56;4974606;28;20050;-69
2024/02/06 04:40:48;;;;;;;57.22;12.77;;;11.50;99.90;;;11.74;100.00;101013.03;4975359;28;20058;-69
2024/02/06 04:43:17;;;;;;;48.72;11.55;;;11.50;99.90;;;11.75;100.00;101020.06;4974353;28;20050;-69
2024/02/06 04:45:46;;;;;;;58.05;12.00;;;11.50;99.90;;;11.71;100.00;101001.56;4990353;28;20070;-69
2024/02/06 04:48:14;;;;;;;46.58;10.98;;;11.50;99.90;;;11.52;100.00;100968.09;4973500;28;20396;-69
2024/02/06 04:50:43;;;;;;;57.03;13.32;;;11.50;99.90;;;11.61;100.00;100990.09;4988831;28;20075;-69
2024/02/06 04:53:11;;;;;;;60.38;12.55;;;11.40;99.90;;;11.65;100.00;101004.22;4974909;28;20121;-69
2024/02/06 04:55:39;;;;;;;58.10;12.80;;;11.40;99.90;;;11.73;100.00;100998.00;4975029;28;20050;-69
2024/02/06 04:58:09;;;;;;;62.72;11.60;;;11.50;99.90;;;11.70;100.00;100999.78;4972911;28;20043;-69
2024/02/06 05:00:38;;;;;;;55.30;12.55;;;11.50;99.90;;;11.79;100.00;101011.22;4973437;28;20436;-69
2024/02/06 05:03:07;;;;;;;52.58;11.90;;;11.50;99.90;;;11.58;100.00;100984.84;4973451;28;20126;-69
2024/02/06 05:05:36;;;;;;;56.08;12.18;;;11.50;99.90;;;11.63;100.00;100988.31;4971802;28;20073;-69
2024/02/06 05:08:05;;;;;;;56.60;12.55;;;11.40;99.90;;;11.71;100.00;100999.78;4988074;28;20139;-69
2024/02/06 05:10:33;;;;;;;53.20;12.40;;;11.50;99.90;;;11.69;100.00;100988.31;4973232;28;20052;-69
2024/02/06 05:13:02;;;;;;;52.45;11.50;;;11.50;99.90;;;11.71;100.00;100973.28;4972999;28;20047;-69
2024/02/06 05:15:32;;;;;;;52.45;13.02;;;11.50;99.90;;;11.71;100.00;100983.03;4972667;28;20047;-69
2024/02/06 05:18:00;;;;;;;61.83;13.27;;;11.50;99.90;;;11.75;100.00;101005.94;4972686;28;20043;-69
2024/02/06 05:20:29;;;;;;;56.28;12.02;;;11.50;99.90;;;11.63;100.00;101000.72;4972577;28;20071;-69
2024/02/06 05:22:57;;;;;;;54.60;12.30;;;11.50;99.90;;;11.83;100.00;100996.16;4987648;28;20050;-69
2024/02/06 05:25:26;;;;;;;51.85;11.85;;;11.60;99.90;;;11.74;100.00;100983.00;4971528;28;20504;-69
2024/02/06 05:27:56;;;;;;;58.40;12.80;;;11.50;99.90;;;11.82;100.00;100981.16;4987616;28;20090;-69
2024/02/06 05:30:25;;;;;;;66.30;13.05;;;11.60;99.90;;;11.88;100.00;100998.78;4973030;28;20058;-69
2024/02/06 05:32:55;;;;;;;53.53;12.60;;;11.60;99.90;;;11.84;100.00;100989.09;4972642;28;20058;-69
2024/02/06 05:35:23;;;;;;;64.43;14.02;;;11.60;99.90;;;11.77;100.00;100964.41;4973021;28;20046;-69
2024/02/06 05:37:52;;;;;;;62.97;11.75;;;11.60;99.90;;;11.72;100.00;100985.66;4987561;28;20051;-69
2024/02/06 05:40:20;;;;;;;62.45;13.25;;;11.60;99.90;;;11.83;100.00;100990.00;4972241;28;20051;-70
2024/02/06 05:42:49;;;;;;;60.28;12.98;;;11.60;99.90;;;11.83;100.00;100967.00;4972546;28;20476;-69
2024/02/06 05:45:17;;;;;;;68.60;13.45;;;11.60;99.90;;;11.83;100.00;100969.66;4972512;28;20074;-69
2024/02/06 05:47:46;;;;;;;54.03;12.18;;;11.60;99.90;;;11.68;100.00;100944.19;4971211;28;20575;-69
2024/02/06 05:50:16;;;;;;;54.50;11.30;;;11.60;99.90;;;11.83;100.00;100943.16;4972222;28;20131;-69
2024/02/06 05:52:44;;;;;;;55.40;12.45;;;11.70;99.90;;;11.86;100.00;100971.41;4972601;28;20043;-69
2024/02/06 05:55:13;;;;;;;55.78;12.38;;;11.60;99.90;;;11.90;100.00;100960.78;4972676;28;20129;-69
2024/02/06 05:57:41;;;;;;;62.72;12.48;;;11.70;99.90;;;11.92;100.00;100950.16;4972056;28;20057;-69
2024/02/06 06:00:12;;;;;;;51.53;11.48;;;11.70;99.90;;;11.86;100.00;100942.25;4987454;28;20054;-69
2024/02/06 06:02:41;;;;;;;;;;;11.70;99.90;;;11.85;100.00;100943.13;4972781;28;20404;-69
2024/02/06 06:05:10;;;;;;;56.67;11.75;;;11.60;99.90;;;11.89;100.00;100948.41;4972266;28;19922;-69
2024/02/06 06:07:39;;;;;;;56.53;11.73;;;11.70;99.90;;;11.84;100.00;100942.28;4987089;28;20055;-69
2024/02/06 06:10:09;;;;;;;69.10;14.48;;;11.60;99.90;;;11.79;100.00;100947.59;4972223;28;20440;-69
2024/02/06 06:12:38;;;;;;;64.45;13.52;;;11.60;99.90;;;11.76;100.00;100925.56;4972221;28;20405;-70
2024/02/06 06:15:07;;;;;;;65.50;13.20;;;11.60;99.90;;;11.88;100.00;100945.78;4971950;28;20102;-70
2024/02/06 06:17:36;;;;;;;57.17;12.82;;;11.70;99.90;;;11.88;100.00;100937.81;4972131;28;20605;-70
2024/02/06 06:20:06;;;;;;;47.63;12.45;;;11.70;99.90;;;11.85;100.00;100906.03;4972152;28;20047;-70
2024/02/06 06:22:34;;;;;;;62.35;12.55;;;11.60;99.90;;;11.86;100.00;100908.69;4971960;28;20566;-70
2024/02/06 06:25:05;;;;;;;67.82;12.68;;;11.60;99.90;;;11.83;100.00;100911.34;4971877;28;20054;-70
2024/02/06 06:27:34;;;;;;;62.47;12.20;;;11.60;99.90;;;11.84;100.00;100920.19;4973827;28;20054;-70
2024/02/06 06:30:02;;;;;;;58.00;12.95;;;11.60;99.90;;;11.83;100.00;100921.94;4976038;28;20082;-70
2024/02/06 06:32:31;;;;;;;58.13;12.90;;;11.60;99.90;;;11.76;100.00;100915.84;4975685;28;20085;-70
2024/02/06 06:34:59;;;;;;;69.05;13.93;;;11.60;99.90;;;11.81;100.00;100906.97;4975665;28;20515;-70
2024/02/06 06:37:28;;;;;;;71.18;14.63;;;11.60;99.90;;;11.77;100.00;100904.34;4975794;28;20053;-69
2024/02/06 06:39:57;;;;;;;68.43;13.68;;;11.60;99.90;;;11.88;100.00;100906.03;4975413;28;20154;-68
2024/02/06 06:42:28;;;;;;;62.28;13.13;;;11.60;99.90;;;11.81;100.00;100891.09;4975566;28;20050;-71
2024/02/06 06:44:57;;;;;;;61.25;12.63;;;11.70;99.90;;;11.87;100.00;100901.59;4975394;28;20579;-69
2024/02/06 06:47:25;;;;;;;69.15;14.18;;;11.60;99.90;;;11.84;100.00;100891.03;4975578;28;20098;-68
2024/02/06 06:49:53;;;;;;;57.05;12.10;;;11.60;99.90;;;11.77;100.00;100892.84;4990614;28;20051;-67
2024/02/06 06:52:22;;;;;;;66.18;13.48;;;11.60;99.90;;;11.72;100.00;100886.72;4975573;28;20047;-67
2024/02/06 06:54:50;;;;;;;68.22;13.68;;;11.50;99.90;;;11.82;100.00;100904.31;4975570;28;20042;-66
2024/02/06 06:57:19;;;;;;;70.35;13.88;;;11.60;99.90;;;11.86;100.00;100907.81;4975340;28;20575;-66
2024/02/06 06:59:49;;;;;;;67.25;13.30;;;11.60;99.90;;;11.74;100.00;100895.53;4975204;28;20053;-67
2024/02/06 07:02:18;;;;;;;63.25;14.25;;;11.60;99.90;;;11.83;100.00;100894.59;4975387;28;20101;-67
2024/02/06 07:04:46;;;;;;;65.15;13.65;;;11.60;99.90;;;11.79;100.00;100891.06;4990197;28;20051;-66
2024/02/06 07:07:15;;;;;;;57.22;12.88;;;11.60;99.90;;;11.75;100.00;100887.56;4975104;28;20481;-67
2024/02/06 07:09:43;;;;;;;59.33;13.82;;;11.60;99.90;;;11.14;100.00;100784.78;4974986;28;20501;-67
2024/02/06 07:12:12;;;;;;;64.78;13.70;;;11.60;99.90;;;11.77;100.00;100891.09;4975222;28;20043;-68
2024/02/06 07:14:40;;;;;;;62.55;13.07;;;11.50;99.90;;;11.78;100.00;100899.94;4975160;28;20050;-67
2024/02/06 07:17:10;;;;;;;63.38;13.00;;;11.60;99.90;;;11.79;100.00;100899.91;4975325;28;20414;-68
2024/02/06 07:19:39;;;;;;;61.47;12.40;;;11.60;99.90;;;11.75;100.00;100892.88;4990015;28;20054;-70
2024/02/06 07:22:07;;;;;;;62.25;13.32;;;11.50;99.90;;;11.76;100.00;100889.34;4974829;28;20695;-69
2024/02/06 07:24:36;;;;;;;67.28;13.38;;;11.60;99.90;;;11.77;100.00;100898.16;4974945;28;20447;-70
2024/02/06 07:27:05;;;;;;;76.40;13.40;;;11.50;99.90;;;11.75;100.00;100914.06;4975244;28;20042;-70
2024/02/06 07:29:35;;;;;;;61.95;13.30;;;11.60;99.90;;;11.77;100.00;100900.81;4989873;28;20054;-70
2024/02/06 07:32:04;;;;;;;65.72;13.70;;;11.50;99.90;;;11.69;100.00;100887.63;4973653;28;20916;-70
2024/02/06 07:34:34;;;;;;;63.10;12.73;;;11.50;99.90;;;11.84;100.00;100896.34;4974392;28;20373;-69
2024/02/06 07:37:02;;;;;;;55.00;13.48;;;11.60;99.90;;;11.84;100.00;100881.31;4974824;28;20038;-70
2024/02/06 07:39:31;;;;;;;70.18;13.45;;;11.60;99.90;;;11.86;100.00;100897.22;4988918;28;20058;-70
2024/02/06 07:41:59;;;;;;;61.60;14.35;;;11.60;99.90;;;11.73;100.00;100872.56;4989310;28;20063;-70
2024/02/06 07:44:27;;;;;;;64.93;13.88;;;11.60;99.90;;;11.90;100.00;100886.56;4989532;28;20066;-70
2024/02/06 07:46:56;;;;;;;61.92;12.48;;;11.70;99.90;;;11.81;100.00;100881.34;4974400;28;20042;-69
2024/02/06 07:49:24;;;;;;;58.42;12.75;;;11.60;99.90;;;11.82;100.00;100883.13;4989436;28;20051;-69
2024/02/06 07:51:54;;;;;;;64.30;12.95;;;11.60;99.90;;;11.84;100.00;100875.13;4974285;28;20456;-70
2024/02/06 07:54:23;;;;;;;54.05;12.23;;;11.60;99.90;;;11.87;100.00;100877.75;4974163;28;20039;-70
2024/02/06 07:56:51;;;;;;;62.10;12.88;;;11.70;99.90;;;11.85;100.00;100876.88;4974265;28;20050;-70
2024/02/06 07:59:20;;;;;;;52.97;12.07;;;11.60;99.90;;;11.87;100.00;100880.41;4974148;28;20494;-70
2024/02/06 08:01:48;;;;;;;59.03;12.45;;;11.70;99.90;;;11.86;100.00;100878.66;4973966;28;20070;-70
2024/02/06 08:04:17;;;;;;;54.63;12.18;;;11.70;99.90;;;11.90;100.00;100875.09;4973881;28;20046;-70
2024/02/06 08:06:45;;;;;;;55.55;11.93;;;11.70;99.90;;;11.91;100.00;100871.53;4974197;28;20050;-70
2024/02/06 08:09:18;;;;;;;69.97;12.02;;;11.70;99.90;;;11.81;100.00;100869.88;4988907;28;20061;-69
2024/02/06 08:11:46;;;;;;;63.20;12.38;;;11.70;99.90;;;11.95;100.00;100874.13;4974185;28;20047;-69
2024/02/06 08:14:15;;;;;;;49.00;11.23;;;11.70;99.90;;;11.94;100.00;100863.56;4973983;28;20078;-67
2024/02/06 08:16:44;;;;;;;52.47;10.93;;;11.70;99.90;;;12.00;100.00;100867.00;4974016;28;20047;-66
2024/02/06 08:19:13;;;;;;;50.60;10.55;;;11.80;99.90;;;12.03;100.00;100856.38;4973823;28;20122;-63
2024/02/06 08:21:43;;;;;;;44.77;10.07;;;11.80;99.90;;;11.89;100.00;100837.09;4974322;28;20043;-67
2024/02/06 08:24:11;;;;;;;44.95;11.13;;;11.80;99.90;;;12.06;100.00;100837.78;4974070;28;20121;-67
2024/02/06 08:26:41;;;;;;;50.45;11.13;;;11.80;99.90;;;12.07;100.00;100867.84;4973859;28;20065;-67
2024/02/06 08:29:09;;;;;;;58.47;12.13;;;11.90;99.90;;;12.13;100.00;100851.88;4973940;28;20043;-66
2024/02/06 08:31:39;;;;;;;52.53;12.10;;;11.90;99.90;;;12.04;100.00;100859.94;4973783;28;20074;-66
2024/02/06 08:34:08;;;;;;;45.95;11.30;;;11.90;99.90;;;12.09;100.00;100879.31;4972470;28;20058;-68
2024/02/06 08:36:36;;;;;;;49.05;11.18;;;11.90;99.90;;;11.95;100.00;100847.63;4973666;28;20046;-66
2024/02/06 08:39:06;;;;;;;45.50;10.77;;;11.90;99.90;;;12.05;100.00;100838.69;4988581;28;20051;-66
2024/02/06 08:41:35;;;;;;;64.60;12.05;;;11.90;99.90;;;11.95;100.00;100825.53;4973895;28;20490;-68
2024/02/06 08:44:08;;;;;;;50.88;10.30;;;11.90;99.90;;;12.08;100.00;100848.41;4975121;28;20046;-68
2024/02/06 08:46:37;;;;;;;45.50;10.52;;;11.90;99.90;;;12.06;100.00;100842.22;4974694;28;20078;-68
2024/02/06 08:49:07;;;;;;;53.67;10.75;;;11.90;99.90;;;12.11;100.00;100837.75;4974047;28;20098;-69
2024/02/06 08:51:35;;;;;;;54.63;12.85;;;11.90;99.90;;;12.07;100.00;100825.41;4988579;28;20057;-68
2024/02/06 08:54:04;;;;;;;51.97;11.02;;;11.90;99.90;;;12.15;100.00;100834.16;4974908;28;20051;-68
2024/02/06 08:56:33;;;;;;;42.28;11.32;;;11.90;99.90;;;12.13;100.00;100810.31;4974859;28;20508;-68
2024/02/06 08:59:03;;;;;;;51.55;11.38;;;11.90;99.90;;;12.09;100.00;100832.47;4974943;28;20117;-69
2024/02/06 09:01:33;;;;;;;46.30;11.35;;;11.90;99.90;;;12.10;100.00;100831.56;4975170;28;20043;-68
2024/02/06 09:04:04;;;;;;;54.00;11.75;;;11.90;99.90;;;12.08;100.00;100838.66;4975450;28;20047;-68
2024/02/06 09:06:36;;;;;;;51.30;10.77;;;11.90;99.90;;;12.04;100.00;100815.72;4974723;28;20047;-68
2024/02/06 09:09:05;;;;;;;45.25;10.35;;;11.80;99.90;;;12.10;100.00;100830.69;4974784;28;20543;-68
2024/02/06 09:11:40;;;;;;;48.50;11.50;;;11.90;99.90;;;12.18;100.00;100828.81;5108758;27;1252349;-68
2024/02/06 09:14:09;;;;;;;51.90;11.68;;;11.90;99.90;;;12.20;100.00;100813.75;5112952;28;20051;-68
2024/02/06 09:16:37;;;;;;;36.67;10.50;;;12.00;99.90;;;12.13;100.00;100820.94;5131424;28;20135;-69
2024/02/06 09:19:07;;;;;;;47.97;11.65;;;11.90;99.90;;;12.16;100.00;100814.69;5112705;28;20100;-68
2024/02/06 09:21:36;;;;;;;52.50;11.17;;;11.90;99.90;;;12.18;100.00;100794.34;5130783;28;20050;-68
2024/02/06 09:24:05;;;;;;;53.42;11.13;;;12.00;99.90;;;12.25;100.00;100785.44;5130797;28;20031;-69
2024/02/06 09:26:34;;;;;;;47.03;12.65;;;12.00;99.90;;;12.30;100.00;100775.63;5130696;28;20057;-69
2024/02/06 09:29:05;;;;;;;54.17;11.93;;;12.10;99.90;;;12.21;100.00;100779.28;5130681;28;20051;-69
2024/02/06 09:31:34;;;;;;;58.90;12.27;;;12.00;99.90;;;12.22;100.00;100796.94;5130501;28;20040;-69
2024/02/06 09:34:04;;;;;;;46.70;9.65;;;12.00;99.90;;;12.26;100.00;100768.59;5131232;28;20053;-69
2024/02/06 09:36:33;;;;;;;51.63;11.13;;;12.10;99.90;;;12.37;100.00;100796.75;5130501;28;20047;-68
2024/02/06 09:39:01;;;;;;;55.20;11.38;;;12.10;99.90;;;12.37;100.00;100766.69;5130507;28;20035;-68
2024/02/06 09:41:30;;;;;;;52.38;10.57;;;12.20;99.90;;;12.36;100.00;100765.84;5131005;28;20547;-69
2024/02/06 09:43:59;;;;;;;39.78;10.15;;;12.20;99.90;;;12.42;100.00;100776.38;5130460;28;20430;-68
2024/02/06 09:46:28;;;;;;;45.65;10.85;;;12.20;99.90;;;12.38;100.00;100747.25;5130907;28;20118;-69
2024/02/06 09:48:57;;;;;;;48.53;11.10;;;12.20;99.90;;;12.42;100.00;100746.28;5130329;28;20057;-69
2024/02/06 09:51:27;;;;;;;47.72;11.10;;;12.20;99.90;;;12.50;100.00;100755.03;5111986;28;20039;-69
2024/02/06 09:53:59;;;;;;;52.40;11.68;;;12.30;99.90;;;12.59;100.00;100757.53;5112107;28;20381;-68
2024/02/06 09:56:29;;;;;;;57.15;12.93;;;12.40;99.90;;;12.61;100.00;100753.97;5130429;28;20438;-69
2024/02/06 09:59:01;;;;;;;38.70;9.50;;;12.40;99.90;;;12.63;100.00;100748.66;5130487;28;20047;-69
2024/02/06 10:01:31;;;;;;;44.63;10.02;;;12.40;99.90;;;12.68;100.00;100768.91;5130063;28;20100;-69